createdAt,value
2022-10-21T00:03:54.305Z,100.00
2022-10-21T00:14:15.690Z,100.00
2022-10-21T00:24:37.028Z,100.00
2022-10-21T00:34:58.645Z,100.00
2022-10-21T00:45:21.927Z,100.00
2022-10-21T00:56:03.562Z,100.00
2022-10-21T01:06:25.788Z,100.00
2022-10-21T01:16:53.177Z,100.00
2022-10-21T01:27:24.311Z,100.00
2022-10-21T01:37:48.785Z,100.00
2022-10-21T01:48:22.107Z,100.00
2022-10-21T01:58:45.117Z,100.00
2022-10-21T02:09:06.602Z,100.00
2022-10-21T02:19:28.681Z,100.00
2022-10-21T02:29:52.552Z,100.00
2022-10-21T02:40:20.030Z,100.00
2022-10-21T02:50:41.425Z,100.00
2022-10-21T03:01:02.814Z,100.00
2022-10-21T03:11:24.232Z,100.00
2022-10-21T03:21:45.582Z,100.00
2022-10-21T03:32:07.078Z,100.00
2022-10-21T03:42:28.842Z,100.00
2022-10-21T03:52:50.258Z,100.00
2022-10-21T04:03:11.609Z,100.00
2022-10-21T04:13:33.367Z,100.00
2022-10-21T04:23:54.725Z,100.00
2022-10-21T04:34:16.090Z,100.00
2022-10-21T04:44:38.537Z,100.00
2022-10-21T04:54:59.898Z,100.00
2022-10-21T05:05:21.299Z,100.00
2022-10-21T05:15:42.683Z,100.00
2022-10-21T05:26:04.067Z,100.00
2022-10-21T05:36:25.465Z,100.00
2022-10-21T05:46:46.810Z,100.00
2022-10-21T05:57:08.142Z,100.00
2022-10-21T06:07:29.478Z,100.00
2022-10-21T06:17:51.515Z,100.00
2022-10-21T06:28:12.915Z,100.00
2022-10-21T06:38:34.423Z,100.00
2022-10-21T06:48:55.787Z,100.00
2022-10-21T06:59:17.194Z,100.00
2022-10-21T07:09:38.640Z,100.00
2022-10-21T07:20:00.633Z,100.00
2022-10-21T07:30:23.435Z,100.00
2022-10-21T07:40:44.890Z,100.00
2022-10-21T07:51:07.783Z,100.00
2022-10-21T08:01:29.280Z,100.00
2022-10-21T08:11:50.823Z,100.00
2022-10-21T08:22:12.442Z,100.00
2022-10-21T08:32:33.954Z,100.00
2022-10-21T08:42:55.358Z,100.00
2022-10-21T08:53:19.750Z,100.00
2022-10-21T09:03:41.101Z,100.00
2022-10-21T09:14:21.415Z,100.00
2022-10-21T09:24:42.871Z,100.00
2022-10-21T09:35:16.681Z,100.00
2022-10-21T09:45:39.124Z,100.00
2022-10-21T09:56:03.817Z,100.00
2022-10-21T10:06:31.362Z,100.00
2022-10-21T10:16:52.821Z,100.00
2022-10-21T10:27:17.507Z,100.00
2022-10-21T10:37:39.005Z,100.00
2022-10-21T10:48:04.127Z,100.00
2022-10-21T10:58:28.001Z,100.00
2022-10-21T11:08:55.533Z,100.00
2022-10-21T11:19:30.132Z,100.00
2022-10-21T11:30:04.057Z,100.00
2022-10-21T11:40:28.707Z,100.00
2022-10-21T11:51:03.714Z,100.00
2022-10-21T12:01:47.063Z,100.00
2022-10-21T12:12:14.664Z,97.85
2022-10-21T12:22:36.464Z,96.11
2022-10-21T12:32:57.925Z,94.11
2022-10-21T12:43:22.523Z,98.46
2022-10-21T12:53:49.220Z,97.81
2022-10-21T13:04:29.524Z,98.59
2022-10-21T13:14:58.285Z,98.51
2022-10-21T13:25:25.812Z,98.59
2022-10-21T13:35:48.516Z,100.00
2022-10-21T13:46:19.165Z,100.00
2022-10-21T13:56:40.780Z,100.00
2022-10-21T14:07:07.919Z,100.00
2022-10-21T14:17:29.348Z,100.00
2022-10-21T14:27:51.054Z,100.00
2022-10-21T14:38:24.619Z,100.00
2022-10-21T14:48:52.274Z,100.00
2022-10-21T14:59:24.800Z,100.00
2022-10-21T15:09:56.502Z,100.00
2022-10-21T15:20:17.980Z,100.00
2022-10-21T15:30:42.173Z,100.00
2022-10-21T15:41:03.626Z,100.00
2022-10-21T15:51:24.999Z,100.00
2022-10-21T16:01:47.041Z,100.00
2022-10-21T16:12:09.302Z,100.00
2022-10-21T16:22:31.070Z,100.00
2022-10-21T16:32:52.617Z,100.00
2022-10-21T16:43:16.192Z,100.00
2022-10-21T16:53:37.675Z,100.00
2022-10-21T17:03:59.065Z,100.00
2022-10-21T17:14:20.538Z,100.00
2022-10-21T17:24:41.947Z,100.00
2022-10-21T17:35:03.387Z,100.00
2022-10-21T17:45:24.985Z,100.00
2022-10-21T17:55:55.258Z,100.00
2022-10-21T18:06:16.759Z,100.00
2022-10-21T18:16:38.153Z,100.00
2022-10-21T18:26:59.546Z,100.00
2022-10-21T18:37:20.968Z,100.00
2022-10-21T18:47:47.043Z,100.00
2022-10-21T18:58:08.438Z,100.00
2022-10-21T19:08:29.790Z,100.00
2022-10-21T19:18:51.417Z,100.00
2022-10-21T19:29:16.117Z,100.00
2022-10-21T19:39:37.473Z,100.00
2022-10-21T19:49:58.864Z,100.00
2022-10-21T20:00:20.468Z,100.00
2022-10-21T20:10:41.871Z,100.00
2022-10-21T20:21:06.303Z,100.00
2022-10-21T20:31:28.044Z,100.00
2022-10-21T20:41:49.394Z,100.00
2022-10-21T20:52:10.777Z,100.00
2022-10-21T21:02:32.150Z,100.00
2022-10-21T21:12:53.514Z,100.00
2022-10-21T21:23:14.915Z,100.00
2022-10-21T21:33:36.527Z,100.00
2022-10-21T21:43:58.349Z,100.00
2022-10-21T21:54:19.853Z,100.00
2022-10-21T22:04:41.285Z,100.00
2022-10-21T22:15:02.979Z,100.00
2022-10-21T22:25:24.388Z,100.00
2022-10-21T22:35:45.733Z,100.00
2022-10-21T22:56:36.619Z,100.00
2022-10-21T23:06:57.981Z,100.00
2022-10-21T23:17:19.326Z,100.00
2022-10-21T23:27:40.745Z,100.00
2022-10-21T23:38:02.154Z,100.00
2022-10-21T23:48:23.491Z,100.00
2022-10-21T23:58:44.875Z,100.00
